Terminal Aerodrome Forecast
Issued by NWS New Orleans/Baton Rouge, LA

Home | Current Version | Previous Version | Text Only | Print | Product List | Glossary On
Versions: 1 2 3 4 5 6 7 8 9 10 11 12 13 14 15 16 17 18 19 20 21
000
FTUS44 KLIX 182324
TAFBTR
TAF
KBTR 182324Z 1900/1924 19011KT P6SM VCSH BKN025 BKN050
      TEMPO 1900/1904 3SM SHRA BKN015
     FM190400 19006KT P6SM BKN008
     FM190900 21004KT 3SM BR BKN003
     FM191400 23008KT P6SM BKN015=

USA.gov is the U.S. government's official web portal to all federal, state and local government web resources and services.